createdAt,value
2019-05-15T00:00:09.381Z,2.70
2019-05-15T00:01:09.169Z,2.70
2019-05-15T00:02:10.852Z,2.70
2019-05-15T00:03:09.145Z,2.70
2019-05-15T00:04:09.430Z,2.60
2019-05-15T00:05:09.269Z,2.80
2019-05-15T00:06:09.111Z,2.70
2019-05-15T00:07:09.099Z,2.40
2019-05-15T00:08:09.627Z,2.70
2019-05-15T00:09:09.085Z,2.40
2019-05-15T00:10:09.166Z,2.70
2019-05-15T00:11:09.081Z,2.90
2019-05-15T00:12:09.050Z,2.60
2019-05-15T00:13:09.508Z,2.90
2019-05-15T00:14:09.028Z,2.80
2019-05-15T00:15:09.574Z,2.70
2019-05-15T00:16:09.028Z,2.70
2019-05-15T00:17:08.996Z,2.70
2019-05-15T00:18:09.009Z,2.80
2019-05-15T00:19:08.987Z,2.90
2019-05-15T00:20:09.926Z,2.50
2019-05-15T00:21:09.485Z,2.70
2019-05-15T00:22:08.945Z,2.60
2019-05-15T00:23:08.937Z,2.60
2019-05-15T00:24:13.064Z,2.80
2019-05-15T00:25:09.469Z,2.80
2019-05-15T00:26:09.425Z,3.10
2019-05-15T00:27:08.894Z,2.70
2019-05-15T00:28:09.682Z,3.10
2019-05-15T00:29:15.649Z,2.70
2019-05-15T00:30:09.861Z,2.80
2019-05-15T00:31:09.229Z,2.60
2019-05-15T00:32:09.228Z,2.80
2019-05-15T00:33:09.346Z,2.70
2019-05-15T00:34:12.804Z,2.90
2019-05-15T00:35:09.577Z,2.60
2019-05-15T00:36:08.925Z,2.70
2019-05-15T00:37:09.111Z,3.10
2019-05-15T00:38:09.465Z,2.70
2019-05-15T00:39:08.768Z,2.70
2019-05-15T00:40:09.132Z,2.60
2019-05-15T00:41:09.496Z,2.70
2019-05-15T00:42:08.758Z,2.80
2019-05-15T00:43:09.059Z,2.70
2019-05-15T00:44:09.333Z,2.90
2019-05-15T00:45:09.372Z,2.80
2019-05-15T00:46:09.371Z,2.80
2019-05-15T00:47:10.436Z,3.00
2019-05-15T00:48:09.077Z,3.10
2019-05-15T00:49:08.846Z,2.70
2019-05-15T00:50:08.978Z,2.70
2019-05-15T00:51:08.641Z,3.00
2019-05-15T00:52:12.104Z,2.80
2019-05-15T00:53:08.827Z,2.80
2019-05-15T00:54:08.614Z,2.80
2019-05-15T00:55:08.968Z,3.00
2019-05-15T00:56:09.038Z,2.70
2019-05-15T00:57:08.682Z,2.90
2019-05-15T00:58:08.920Z,3.00
2019-05-15T00:59:08.560Z,3.00
2019-05-15T01:00:08.545Z,3.10
2019-05-15T01:01:08.542Z,2.90
2019-05-15T01:02:08.817Z,3.20
2019-05-15T01:03:08.924Z,3.00
2019-05-15T01:04:08.510Z,3.00
2019-05-15T01:05:08.551Z,2.90
2019-05-15T01:06:08.606Z,2.80
2019-05-15T01:07:08.515Z,2.80
2019-05-15T01:08:08.492Z,3.00
2019-05-15T01:09:08.535Z,3.10
2019-05-15T01:10:09.845Z,3.00
2019-05-15T01:11:09.132Z,2.80
2019-05-15T01:12:09.042Z,2.80
2019-05-15T01:13:08.715Z,3.00
2019-05-15T01:14:12.127Z,3.00
2019-05-15T01:15:09.191Z,3.00
2019-05-15T01:16:09.138Z,3.10
2019-05-15T01:17:09.132Z,3.20
2019-05-15T01:18:09.329Z,2.90
2019-05-15T01:19:09.241Z,2.90
2019-05-15T01:20:08.666Z,3.00
2019-05-15T01:21:08.584Z,3.10
2019-05-15T01:22:08.838Z,3.20
2019-05-15T01:23:09.059Z,2.90
2019-05-15T01:24:08.515Z,3.10
2019-05-15T01:25:08.786Z,3.20
2019-05-15T01:26:08.501Z,3.20
2019-05-15T01:27:09.128Z,3.20
2019-05-15T01:28:09.334Z,3.20
2019-05-15T01:29:09.103Z,3.30
2019-05-15T01:30:08.957Z,3.00
2019-05-15T01:31:08.693Z,3.10
2019-05-15T01:32:08.530Z,3.20
2019-05-15T01:33:08.478Z,3.00
2019-05-15T01:34:08.989Z,3.30
2019-05-15T01:35:09.488Z,3.20
2019-05-15T01:36:08.614Z,2.90
2019-05-15T01:37:08.630Z,3.20
2019-05-15T01:38:08.456Z,3.50
2019-05-15T01:39:08.156Z,3.20
2019-05-15T01:40:08.775Z,3.30
2019-05-15T01:41:09.751Z,3.30
2019-05-15T01:42:08.423Z,3.40
2019-05-15T01:43:09.078Z,3.20
2019-05-15T01:44:08.785Z,3.40
2019-05-15T01:45:08.674Z,3.30
2019-05-15T01:46:08.558Z,3.50
2019-05-15T01:47:08.550Z,3.50
2019-05-15T01:48:08.265Z,3.60
2019-05-15T01:49:08.118Z,4.00
2019-05-15T01:50:09.336Z,3.90
2019-05-15T01:51:09.288Z,3.70
2019-05-15T01:52:08.118Z,3.20
2019-05-15T01:53:08.415Z,3.60
2019-05-15T01:54:09.158Z,3.20
2019-05-15T01:55:09.172Z,3.50
2019-05-15T01:56:08.580Z,3.40
2019-05-15T01:57:09.274Z,3.40
2019-05-15T01:58:09.040Z,3.70
2019-05-15T01:59:08.669Z,3.30
2019-05-15T02:00:08.697Z,3.30
2019-05-15T02:01:08.313Z,2.90
2019-05-15T02:02:09.631Z,3.20
2019-05-15T02:03:09.790Z,3.00
2019-05-15T02:04:08.347Z,3.60
2019-05-15T02:05:08.718Z,3.20
2019-05-15T02:06:15.410Z,3.40
2019-05-15T02:07:08.328Z,3.30
2019-05-15T02:08:08.317Z,3.60
2019-05-15T02:09:08.400Z,3.40
2019-05-15T02:10:09.175Z,3.20
2019-05-15T02:11:09.208Z,3.30
2019-05-15T02:12:08.699Z,3.20
2019-05-15T02:13:08.595Z,3.50
2019-05-15T02:14:08.355Z,3.30
2019-05-15T02:15:08.533Z,3.50
2019-05-15T02:16:08.385Z,3.60
2019-05-15T02:17:08.484Z,3.60
2019-05-15T02:18:08.382Z,3.30
2019-05-15T02:19:08.967Z,3.40
2019-05-15T02:20:08.674Z,3.30
2019-05-15T02:21:10.244Z,3.80
2019-05-15T02:22:08.383Z,3.10
2019-05-15T02:23:11.586Z,3.20
2019-05-15T02:24:08.023Z,3.70
2019-05-15T02:25:08.609Z,3.40
2019-05-15T02:26:08.068Z,3.00
2019-05-15T02:27:08.999Z,3.50
2019-05-15T02:28:09.437Z,3.60
2019-05-15T02:29:08.350Z,3.60
2019-05-15T02:30:18.284Z,3.60
2019-05-15T02:31:10.387Z,3.50
2019-05-15T02:32:10.220Z,3.60
2019-05-15T02:33:10.703Z,3.50
2019-05-15T02:34:10.111Z,3.50
2019-05-15T02:35:10.057Z,3.30
2019-05-15T02:36:09.751Z,3.20
2019-05-15T02:37:08.935Z,3.30
2019-05-15T02:38:10.114Z,3.80
2019-05-15T02:39:08.981Z,3.40
2019-05-15T02:40:09.869Z,3.70
2019-05-15T02:41:09.914Z,3.20
2019-05-15T02:42:09.928Z,3.70
2019-05-15T02:43:10.048Z,3.30
2019-05-15T02:44:10.642Z,3.50
2019-05-15T02:45:09.956Z,3.70
2019-05-15T02:46:10.109Z,3.90
2019-05-15T02:47:09.230Z,3.80
2019-05-15T02:48:08.937Z,3.50
2019-05-15T02:49:08.772Z,3.40
2019-05-15T02:50:10.717Z,3.70
2019-05-15T02:51:09.700Z,3.80
2019-05-15T02:52:09.743Z,3.60
2019-05-15T02:53:09.787Z,3.60
2019-05-15T02:54:10.296Z,3.70
2019-05-15T02:55:09.406Z,3.50
2019-05-15T02:56:09.292Z,3.70
2019-05-15T02:57:09.846Z,3.80
2019-05-15T02:58:10.015Z,3.40
2019-05-15T02:59:09.218Z,3.50
2019-05-15T03:00:10.690Z,3.50
2019-05-15T03:01:09.279Z,3.70
2019-05-15T03:02:10.077Z,3.60
2019-05-15T03:03:09.493Z,3.40
2019-05-15T03:04:09.284Z,3.30
2019-05-15T03:05:09.319Z,3.40
2019-05-15T03:06:10.001Z,3.40
2019-05-15T03:07:09.676Z,3.40
2019-05-15T03:08:09.522Z,3.50
2019-05-15T03:09:09.460Z,3.40
2019-05-15T03:10:09.414Z,3.40
2019-05-15T03:11:09.774Z,3.50
2019-05-15T03:12:09.103Z,3.80
2019-05-15T03:13:09.689Z,4.10
2019-05-15T03:14:09.239Z,3.80
2019-05-15T03:15:09.642Z,3.50
2019-05-15T03:16:09.998Z,3.90
2019-05-15T03:17:09.809Z,3.80
2019-05-15T03:18:09.571Z,3.70
2019-05-15T03:19:09.996Z,3.70
2019-05-15T03:20:10.421Z,3.50
2019-05-15T03:21:09.638Z,3.70
2019-05-15T03:22:09.748Z,3.60
2019-05-15T03:23:09.640Z,3.70
2019-05-15T03:24:09.827Z,3.40
2019-05-15T03:25:10.518Z,3.60
2019-05-15T03:26:08.883Z,3.30
2019-05-15T03:27:09.159Z,3.50
2019-05-15T03:28:10.107Z,3.70
2019-05-15T03:29:09.772Z,3.50
2019-05-15T03:30:12.251Z,3.50
2019-05-15T03:31:26.595Z,3.50
2019-05-15T03:32:22.926Z,3.70
2019-05-15T03:33:15.776Z,3.90
2019-05-15T03:34:19.256Z,3.30
2019-05-15T03:35:13.763Z,3.30
2019-05-15T03:36:13.330Z,3.80
2019-05-15T03:37:12.301Z,3.30
2019-05-15T03:38:09.237Z,3.60
2019-05-15T03:39:09.544Z,3.50
2019-05-15T03:40:09.843Z,3.50
2019-05-15T03:41:09.888Z,3.70
2019-05-15T03:42:09.633Z,3.30
2019-05-15T03:43:09.167Z,3.60
2019-05-15T03:44:09.521Z,3.70
2019-05-15T03:45:09.653Z,3.40
2019-05-15T03:46:09.053Z,3.60
2019-05-15T03:47:09.272Z,3.50
2019-05-15T03:48:09.366Z,3.60
2019-05-15T03:49:08.627Z,3.40
2019-05-15T03:50:09.008Z,3.30
2019-05-15T03:51:09.188Z,3.80
2019-05-15T03:52:09.772Z,3.20
2019-05-15T03:53:09.807Z,3.30
2019-05-15T03:54:09.303Z,3.40
2019-05-15T03:55:10.115Z,3.80
2019-05-15T03:56:09.734Z,3.60
2019-05-15T03:57:09.571Z,3.80
2019-05-15T03:58:09.876Z,3.50
2019-05-15T03:59:09.375Z,3.60
2019-05-15T04:00:09.338Z,3.70
2019-05-15T04:01:27.875Z,3.40
2019-05-15T04:02:08.667Z,3.20
2019-05-15T04:03:10.262Z,3.50
2019-05-15T04:04:09.440Z,3.30
2019-05-15T04:05:06.603Z,3.80
2019-05-15T04:06:09.689Z,3.70
2019-05-15T04:07:09.229Z,3.50
2019-05-15T04:08:10.381Z,3.70
2019-05-15T04:09:09.331Z,3.30
2019-05-15T04:10:09.552Z,3.60
2019-05-15T04:11:09.117Z,3.50
2019-05-15T04:12:09.331Z,3.50
2019-05-15T04:13:09.369Z,3.50
2019-05-15T04:14:09.897Z,3.40
2019-05-15T04:15:09.793Z,3.30
2019-05-15T04:16:09.993Z,3.50
2019-05-15T04:17:09.073Z,3.50
2019-05-15T04:18:09.271Z,3.50
2019-05-15T04:19:09.412Z,3.80
2019-05-15T04:20:09.606Z,3.70
2019-05-15T04:21:09.033Z,3.50
2019-05-15T04:22:09.222Z,3.80
2019-05-15T04:23:09.770Z,3.60
2019-05-15T04:24:09.273Z,3.60
2019-05-15T04:25:09.390Z,3.30
2019-05-15T04:26:09.189Z,3.60
2019-05-15T04:27:10.482Z,3.60
2019-05-15T04:28:09.393Z,3.30
2019-05-15T04:29:09.501Z,3.30
2019-05-15T04:30:10.556Z,3.40
2019-05-15T04:31:09.254Z,3.60
2019-05-15T04:32:07.203Z,3.90
2019-05-15T04:33:09.085Z,3.60
2019-05-15T04:34:08.941Z,3.50
2019-05-15T04:35:09.190Z,3.60
2019-05-15T04:36:09.484Z,3.50
2019-05-15T04:37:09.196Z,3.60
2019-05-15T04:38:09.059Z,3.60
2019-05-15T04:39:09.553Z,3.80
2019-05-15T04:40:09.245Z,4.00
2019-05-15T04:41:09.452Z,4.30
2019-05-15T04:42:08.208Z,3.70
2019-05-15T04:43:06.184Z,3.70
2019-05-15T04:44:06.195Z,3.80
2019-05-15T04:45:09.657Z,3.80
2019-05-15T04:46:09.519Z,4.00
2019-05-15T04:47:09.442Z,4.00
2019-05-15T04:48:09.528Z,3.90
2019-05-15T04:49:09.112Z,4.00
2019-05-15T04:50:08.810Z,4.10
2019-05-15T04:51:09.455Z,4.70
2019-05-15T04:52:06.079Z,4.20
2019-05-15T04:53:06.085Z,4.40
2019-05-15T04:54:09.290Z,4.60
2019-05-15T04:55:09.687Z,4.70
2019-05-15T04:56:09.203Z,4.70
2019-05-15T04:57:09.000Z,4.40
2019-05-15T04:58:06.024Z,4.60
2019-05-15T04:59:06.022Z,4.20
2019-05-15T05:00:09.203Z,3.90
2019-05-15T05:01:09.148Z,4.20
2019-05-15T05:02:24.195Z,4.40
2019-05-15T05:03:09.861Z,4.20
2019-05-15T05:04:05.952Z,4.30
2019-05-15T05:05:05.953Z,3.90
2019-05-15T05:06:05.933Z,4.20
2019-05-15T05:07:05.915Z,3.90
2019-05-15T05:08:09.089Z,4.80
2019-05-15T05:09:08.935Z,4.50
2019-05-15T05:10:09.169Z,4.40
2019-05-15T05:11:05.877Z,4.50
2019-05-15T05:12:08.406Z,3.90
2019-05-15T05:13:08.778Z,4.20
2019-05-15T05:14:08.282Z,4.90
2019-05-15T05:15:08.254Z,4.20
2019-05-15T05:16:05.845Z,4.40
2019-05-15T05:17:08.811Z,4.60
2019-05-15T05:18:05.825Z,4.90
2019-05-15T05:19:08.726Z,4.20
2019-05-15T05:20:08.059Z,4.20
2019-05-15T05:21:07.738Z,4.90
2019-05-15T05:22:07.732Z,5.10
2019-05-15T05:23:08.406Z,4.60
2019-05-15T05:24:07.841Z,4.50
2019-05-15T05:25:07.843Z,3.90
2019-05-15T05:26:08.818Z,4.40
2019-05-15T05:27:08.762Z,4.50
2019-05-15T05:28:05.715Z,4.60
2019-05-15T05:29:05.682Z,4.40
2019-05-15T05:30:08.159Z,4.90
2019-05-15T05:31:08.158Z,4.30
2019-05-15T05:32:05.652Z,4.40
2019-05-15T05:33:05.640Z,4.70
2019-05-15T05:34:05.642Z,4.60
2019-05-15T05:35:08.200Z,4.80
2019-05-15T05:36:07.706Z,4.10
2019-05-15T05:37:07.710Z,4.20
2019-05-15T05:38:07.747Z,3.90
2019-05-15T05:39:05.608Z,4.00
2019-05-15T05:40:07.885Z,4.00
2019-05-15T05:41:07.958Z,4.00
2019-05-15T05:42:07.783Z,3.90
2019-05-15T05:43:05.555Z,4.20
2019-05-15T05:44:05.519Z,4.00
2019-05-15T05:45:05.652Z,3.80
2019-05-15T05:46:05.497Z,3.70
2019-05-15T05:47:05.560Z,4.00
2019-05-15T05:48:05.530Z,3.80
2019-05-15T05:49:07.971Z,3.60
2019-05-15T05:50:07.779Z,3.40
2019-05-15T05:51:05.462Z,3.50
2019-05-15T05:52:05.438Z,3.50
2019-05-15T05:53:05.422Z,3.40
2019-05-15T05:54:05.433Z,3.20
2019-05-15T05:55:05.415Z,2.80
2019-05-15T05:56:05.412Z,3.00
2019-05-15T05:57:05.393Z,3.20
2019-05-15T05:58:08.035Z,3.10
2019-05-15T05:59:05.385Z,3.20
2019-05-15T06:00:05.348Z,3.10
2019-05-15T06:01:05.366Z,3.20
2019-05-15T06:02:08.025Z,3.20
2019-05-15T06:03:08.493Z,3.40
2019-05-15T06:04:05.305Z,3.30
2019-05-15T06:05:07.775Z,3.30
2019-05-15T06:06:05.334Z,2.90
2019-05-15T06:07:10.033Z,3.00
2019-05-15T06:08:08.051Z,3.20
2019-05-15T06:09:05.255Z,3.20
2019-05-15T06:10:05.249Z,3.00
2019-05-15T06:11:05.253Z,3.00
2019-05-15T06:12:05.220Z,3.10
2019-05-15T06:13:08.497Z,3.30
2019-05-15T06:14:05.216Z,3.20
2019-05-15T06:15:05.190Z,3.20
2019-05-15T06:16:05.200Z,3.00
2019-05-15T06:17:05.187Z,2.90
2019-05-15T06:18:05.158Z,3.00
2019-05-15T06:19:05.154Z,3.40
2019-05-15T06:20:05.138Z,2.90
2019-05-15T06:21:05.183Z,3.30
2019-05-15T06:22:05.137Z,3.30
2019-05-15T06:23:05.120Z,2.60
2019-05-15T06:24:05.994Z,3.00
2019-05-15T06:25:05.306Z,2.50
2019-05-15T06:26:05.115Z,2.80
2019-05-15T06:27:05.067Z,2.60
2019-05-15T06:28:05.064Z,2.60
2019-05-15T06:29:05.043Z,2.60
2019-05-15T06:30:05.030Z,2.60
2019-05-15T06:31:05.067Z,2.20
2019-05-15T06:32:05.023Z,2.40
2019-05-15T06:33:10.653Z,2.40
2019-05-15T06:34:08.162Z,2.60
2019-05-15T06:35:04.989Z,2.50
2019-05-15T06:36:04.995Z,2.50
2019-05-15T06:37:05.005Z,2.80
2019-05-15T06:38:04.961Z,2.80
2019-05-15T06:39:04.938Z,2.70
2019-05-15T06:40:04.931Z,2.60
2019-05-15T06:41:04.914Z,2.70
2019-05-15T06:42:04.925Z,2.50
2019-05-15T06:43:04.897Z,2.70
2019-05-15T06:44:04.906Z,2.60
2019-05-15T06:45:04.873Z,2.70
2019-05-15T06:46:04.867Z,2.60
2019-05-15T06:47:04.872Z,2.80
2019-05-15T06:48:04.860Z,2.70
2019-05-15T06:49:04.836Z,2.70
2019-05-15T06:50:04.829Z,2.50
2019-05-15T06:51:04.807Z,3.00
2019-05-15T06:52:04.819Z,3.00
2019-05-15T06:53:07.649Z,3.20
2019-05-15T06:54:05.782Z,2.90
2019-05-15T06:55:04.774Z,3.20
2019-05-15T06:56:04.786Z,2.90
2019-05-15T06:57:04.785Z,2.80
2019-05-15T06:58:04.734Z,2.70
2019-05-15T06:59:04.730Z,3.10
2019-05-15T07:00:04.717Z,2.90
2019-05-15T07:01:04.716Z,2.80
2019-05-15T07:02:04.691Z,3.00
2019-05-15T07:03:16.767Z,2.50
2019-05-15T07:04:05.671Z,2.90
2019-05-15T07:05:04.660Z,2.90
2019-05-15T07:06:04.667Z,2.60
2019-05-15T07:07:04.643Z,2.70
2019-05-15T07:08:04.648Z,3.00
2019-05-15T07:09:04.619Z,2.80
2019-05-15T07:10:04.622Z,2.70
2019-05-15T07:11:04.594Z,2.40
2019-05-15T07:12:04.588Z,2.50
2019-05-15T07:13:04.619Z,2.00
2019-05-15T07:14:04.578Z,2.10
2019-05-15T07:15:04.583Z,1.80
2019-05-15T07:16:04.542Z,1.50
2019-05-15T07:17:04.532Z,1.30
2019-05-15T07:18:04.529Z,1.40
2019-05-15T07:19:04.530Z,1.50
2019-05-15T07:20:04.542Z,1.40
2019-05-15T07:21:04.493Z,1.30
2019-05-15T07:22:04.479Z,1.40
2019-05-15T07:23:04.471Z,1.30
2019-05-15T07:24:04.481Z,1.30
2019-05-15T07:25:04.569Z,1.40
2019-05-15T07:26:04.451Z,1.40
2019-05-15T07:27:04.427Z,1.30
2019-05-15T07:28:04.415Z,1.50
2019-05-15T07:29:04.430Z,1.50
2019-05-15T07:30:04.418Z,1.30
2019-05-15T07:31:04.385Z,1.40
2019-05-15T07:32:04.383Z,1.40
2019-05-15T07:33:04.362Z,1.30
2019-05-15T07:34:04.383Z,1.40
2019-05-15T07:35:04.342Z,1.10
2019-05-15T07:36:04.335Z,1.30
2019-05-15T07:37:04.342Z,1.00
2019-05-15T07:38:04.310Z,1.40
2019-05-15T07:39:04.342Z,1.20
2019-05-15T07:40:04.290Z,1.10
2019-05-15T07:41:04.693Z,1.30
2019-05-15T07:42:04.266Z,1.40
2019-05-15T07:43:04.267Z,1.40
2019-05-15T07:44:04.259Z,1.20
2019-05-15T07:45:04.258Z,1.30
2019-05-15T07:46:04.227Z,1.30
2019-05-15T07:47:04.217Z,1.20
2019-05-15T07:48:04.204Z,1.40
2019-05-15T07:49:04.204Z,1.10
2019-05-15T07:50:04.219Z,1.20
2019-05-15T07:51:04.172Z,1.30
2019-05-15T07:52:04.162Z,1.10
2019-05-15T07:53:04.154Z,1.30
2019-05-15T07:54:04.141Z,1.30
2019-05-15T07:55:04.170Z,1.60
2019-05-15T07:56:04.143Z,1.50
2019-05-15T07:57:04.111Z,1.30
2019-05-15T07:58:04.108Z,1.10
2019-05-15T07:59:04.093Z,1.40
2019-05-15T08:00:04.080Z,1.00
2019-05-15T08:01:05.509Z,1.20
2019-05-15T08:02:04.055Z,1.20
2019-05-15T08:03:04.047Z,1.20
2019-05-15T08:04:22.709Z,1.20
2019-05-15T08:05:11.572Z,1.30
2019-05-15T08:06:04.038Z,1.20
2019-05-15T08:07:11.565Z,1.30
2019-05-15T08:08:04.029Z,1.30
2019-05-15T08:09:03.991Z,1.30
2019-05-15T08:10:03.977Z,1.20
2019-05-15T08:11:17.480Z,1.00
2019-05-15T08:12:04.950Z,1.10
2019-05-15T08:13:11.495Z,1.40
2019-05-15T08:14:03.936Z,1.10
2019-05-15T08:15:03.923Z,1.20
2019-05-15T08:16:03.953Z,1.30
2019-05-15T08:17:03.907Z,1.30
2019-05-15T08:18:09.191Z,1.30
2019-05-15T08:19:04.885Z,1.30
2019-05-15T08:20:03.869Z,1.20
2019-05-15T08:21:03.857Z,1.30
2019-05-15T08:22:03.874Z,1.40
2019-05-15T08:23:03.893Z,1.10
2019-05-15T08:24:03.829Z,1.40
2019-05-15T08:25:06.752Z,1.20
2019-05-15T08:26:03.807Z,1.30
2019-05-15T08:27:03.820Z,1.30
2019-05-15T08:28:03.784Z,1.20
2019-05-15T08:29:03.780Z,1.20
2019-05-15T08:30:03.768Z,1.40
2019-05-15T08:31:06.545Z,1.30
2019-05-15T08:32:04.786Z,1.20
2019-05-15T08:33:03.773Z,1.20
2019-05-15T08:34:13.564Z,1.20
2019-05-15T08:35:04.710Z,1.20
2019-05-15T08:36:03.698Z,1.20
2019-05-15T08:37:03.706Z,1.30
2019-05-15T08:38:03.681Z,1.20
2019-05-15T08:39:03.665Z,1.40
2019-05-15T08:40:03.673Z,1.20
2019-05-15T08:41:03.645Z,1.20
2019-05-15T08:42:03.657Z,1.30
2019-05-15T08:43:03.634Z,1.40
2019-05-15T08:44:03.623Z,1.20
2019-05-15T08:45:03.603Z,1.50
2019-05-15T08:46:03.601Z,1.10
2019-05-15T08:47:03.583Z,1.30
2019-05-15T08:48:03.594Z,1.30
2019-05-15T08:49:03.612Z,1.20
2019-05-15T08:50:03.551Z,1.20
2019-05-15T08:51:03.558Z,1.30
2019-05-15T08:52:03.565Z,1.30
2019-05-15T08:53:03.572Z,1.30
2019-05-15T08:54:03.544Z,1.40
2019-05-15T08:55:03.500Z,1.30
2019-05-15T08:56:03.496Z,1.50
2019-05-15T08:57:03.485Z,1.20
2019-05-15T08:58:08.461Z,1.10
2019-05-15T08:59:04.458Z,1.30
2019-05-15T09:00:03.469Z,1.30
2019-05-15T09:01:03.456Z,1.30
2019-05-15T09:02:03.430Z,1.20
2019-05-15T09:03:03.408Z,1.40
2019-05-15T09:04:03.414Z,1.20
2019-05-15T09:05:03.389Z,1.30
2019-05-15T09:06:03.381Z,1.40
2019-05-15T09:07:03.371Z,1.30
2019-05-15T09:08:03.366Z,1.30
2019-05-15T09:09:03.384Z,1.60
2019-05-15T09:10:03.376Z,1.30
2019-05-15T09:11:03.333Z,1.50
2019-05-15T09:12:03.331Z,1.40
2019-05-15T09:13:03.321Z,1.60
2019-05-15T09:14:03.317Z,1.40
2019-05-15T09:15:03.275Z,1.50
2019-05-15T09:16:03.274Z,1.20
2019-05-15T09:17:03.258Z,1.40
2019-05-15T09:18:14.849Z,1.40
2019-05-15T09:19:04.307Z,1.40
2019-05-15T09:20:03.223Z,1.50
2019-05-15T09:21:03.254Z,1.40
2019-05-15T09:22:03.211Z,1.50
2019-05-15T09:23:03.192Z,1.40
2019-05-15T09:24:03.198Z,1.80
2019-05-15T09:25:03.173Z,1.70
2019-05-15T09:26:03.155Z,1.30
2019-05-15T09:27:03.165Z,1.60
2019-05-15T09:28:03.149Z,1.60
2019-05-15T09:29:03.142Z,1.60
2019-05-15T09:30:03.114Z,1.80
2019-05-15T09:31:03.106Z,1.50
2019-05-15T09:32:03.101Z,1.60
2019-05-15T09:33:03.092Z,1.60
2019-05-15T09:34:03.093Z,1.50
2019-05-15T09:35:03.067Z,1.60
2019-05-15T09:36:03.056Z,1.60
2019-05-15T09:37:03.057Z,1.50
2019-05-15T09:38:03.036Z,1.60
2019-05-15T09:39:03.050Z,1.50
2019-05-15T09:40:03.018Z,1.60
2019-05-15T09:41:03.001Z,1.60
2019-05-15T09:42:02.994Z,1.60
2019-05-15T09:43:02.986Z,1.70
2019-05-15T09:44:03.028Z,1.40
2019-05-15T09:45:02.989Z,1.60
2019-05-15T09:46:02.956Z,1.80
2019-05-15T09:47:02.938Z,1.70
2019-05-15T09:48:02.940Z,1.70
2019-05-15T09:49:02.922Z,1.60
2019-05-15T09:50:02.932Z,1.70
2019-05-15T09:51:02.907Z,1.60
2019-05-15T09:52:02.884Z,1.60
2019-05-15T09:53:02.899Z,1.60
2019-05-15T09:54:02.867Z,1.40
2019-05-15T09:55:02.896Z,1.50
2019-05-15T09:56:02.875Z,1.70
2019-05-15T09:57:02.842Z,1.70
2019-05-15T09:58:02.825Z,1.50
2019-05-15T09:59:02.805Z,1.60
2019-05-15T10:00:02.793Z,1.70
2019-05-15T10:01:02.856Z,1.70
2019-05-15T10:02:02.784Z,1.60
2019-05-15T10:03:02.781Z,1.60
2019-05-15T10:04:02.769Z,1.50
2019-05-15T10:05:06.490Z,1.60
2019-05-15T10:06:03.747Z,1.30
2019-05-15T10:07:02.725Z,1.60
2019-05-15T10:08:02.747Z,1.60
2019-05-15T10:09:02.704Z,1.60
2019-05-15T10:10:02.695Z,1.60
2019-05-15T10:11:02.702Z,1.60
2019-05-15T10:12:02.670Z,1.70
2019-05-15T10:13:02.696Z,1.50
2019-05-15T10:14:02.652Z,1.60
2019-05-15T10:15:02.643Z,1.60
2019-05-15T10:16:02.654Z,1.70
2019-05-15T10:17:02.640Z,1.80
2019-05-15T10:18:02.606Z,2.00
2019-05-15T10:19:02.610Z,1.60
2019-05-15T10:20:02.610Z,1.50
2019-05-15T10:21:02.569Z,1.50
2019-05-15T10:22:02.583Z,1.70
2019-05-15T10:23:02.549Z,1.80
2019-05-15T10:24:02.553Z,1.50
2019-05-15T10:25:02.545Z,1.70
2019-05-15T10:26:02.532Z,1.90
2019-05-15T10:27:02.530Z,1.80
2019-05-15T10:28:02.513Z,1.70
2019-05-15T10:29:02.488Z,1.90
2019-05-15T10:30:02.478Z,1.70
2019-05-15T10:31:02.476Z,1.90
2019-05-15T10:32:02.472Z,1.50
2019-05-15T10:33:02.483Z,1.70
2019-05-15T10:34:02.448Z,1.80
2019-05-15T10:35:02.430Z,1.70
2019-05-15T10:36:02.412Z,1.50
2019-05-15T10:37:02.423Z,1.40
2019-05-15T10:38:02.397Z,1.50
2019-05-15T10:39:02.471Z,1.40
2019-05-15T10:40:02.376Z,1.50
2019-05-15T10:41:08.696Z,1.50
2019-05-15T10:42:03.373Z,1.50
2019-05-15T10:43:02.374Z,1.60
2019-05-15T10:44:02.332Z,1.40
2019-05-15T10:45:02.338Z,1.50
2019-05-15T10:46:02.318Z,1.60
2019-05-15T10:47:02.293Z,1.50
2019-05-15T10:48:02.320Z,1.50
2019-05-15T10:49:02.278Z,1.60
2019-05-15T10:50:02.287Z,1.70
2019-05-15T10:51:07.165Z,1.40
2019-05-15T10:52:03.467Z,1.50
2019-05-15T10:53:03.139Z,1.80
2019-05-15T10:54:02.225Z,1.50
2019-05-15T10:55:02.214Z,1.50
2019-05-15T10:56:02.738Z,1.60
2019-05-15T10:57:05.154Z,1.70
2019-05-15T10:58:02.210Z,1.60
2019-05-15T10:59:02.164Z,2.00
2019-05-15T11:00:02.170Z,1.70
2019-05-15T11:01:03.289Z,1.70
2019-05-15T11:02:02.162Z,1.70
2019-05-15T11:03:02.418Z,1.80
2019-05-15T11:04:02.126Z,1.90
2019-05-15T11:05:02.104Z,1.90
2019-05-15T11:06:02.099Z,1.80
2019-05-15T11:07:02.095Z,1.80
2019-05-15T11:08:02.080Z,1.70
2019-05-15T11:09:02.077Z,1.80
2019-05-15T11:10:02.051Z,1.80
2019-05-15T11:11:02.047Z,2.00
2019-05-15T11:12:02.043Z,1.90
2019-05-15T11:13:02.026Z,1.70
2019-05-15T11:14:02.265Z,2.20
2019-05-15T11:15:02.046Z,2.20
2019-05-15T11:16:01.986Z,2.30
2019-05-15T11:17:01.974Z,2.20
2019-05-15T11:18:01.967Z,2.30
2019-05-15T11:19:01.987Z,2.10
2019-05-15T11:20:01.960Z,1.90
2019-05-15T11:21:01.934Z,2.00
2019-05-15T11:22:01.970Z,1.90
2019-05-15T11:23:01.934Z,2.00
2019-05-15T11:24:01.943Z,1.80
2019-05-15T11:25:01.891Z,1.80
2019-05-15T11:26:01.887Z,1.90
2019-05-15T11:27:01.869Z,2.10
2019-05-15T11:28:01.884Z,2.10
2019-05-15T11:29:01.850Z,2.10
2019-05-15T11:30:01.856Z,1.60
2019-05-15T11:31:01.992Z,1.90
2019-05-15T11:32:01.817Z,2.10
2019-05-15T11:33:01.845Z,2.50
2019-05-15T11:34:01.819Z,2.50
2019-05-15T11:35:04.303Z,2.10
2019-05-15T11:36:05.851Z,2.20
2019-05-15T11:37:01.780Z,2.40
2019-05-15T11:38:01.762Z,2.10
2019-05-15T11:39:01.738Z,2.20
2019-05-15T11:40:01.766Z,2.00
2019-05-15T11:41:04.572Z,2.00
2019-05-15T11:42:01.720Z,1.90
2019-05-15T11:43:01.726Z,2.00
2019-05-15T11:44:01.692Z,2.00
2019-05-15T11:45:01.696Z,1.80
2019-05-15T11:46:01.678Z,2.20
2019-05-15T11:47:01.655Z,2.00
2019-05-15T11:48:01.653Z,2.20
2019-05-15T11:49:01.634Z,1.90
2019-05-15T11:50:01.651Z,1.80
2019-05-15T11:51:01.615Z,1.70
2019-05-15T11:52:01.606Z,1.90
2019-05-15T11:53:01.594Z,1.70
2019-05-15T11:54:01.582Z,2.00
2019-05-15T11:55:01.630Z,2.10
2019-05-15T11:56:01.596Z,1.90
2019-05-15T11:57:01.585Z,1.80
2019-05-15T11:58:01.558Z,1.80
2019-05-15T11:59:01.548Z,1.90
2019-05-15T12:00:01.808Z,1.90
2019-05-15T12:01:01.507Z,1.70
2019-05-15T12:02:01.495Z,1.90
2019-05-15T12:03:01.483Z,1.60
2019-05-15T12:04:01.481Z,1.50
2019-05-15T12:05:01.507Z,1.80
2019-05-15T12:06:14.930Z,1.90
2019-05-15T12:07:02.775Z,1.70
2019-05-15T12:08:01.438Z,1.60
2019-05-15T12:09:01.425Z,1.80
2019-05-15T12:10:01.422Z,1.60
2019-05-15T12:11:01.450Z,1.50
2019-05-15T12:12:01.402Z,1.50
2019-05-15T12:13:01.378Z,1.50
2019-05-15T12:14:01.388Z,1.60
2019-05-15T12:15:01.378Z,1.70
2019-05-15T12:16:01.383Z,1.40
2019-05-15T12:17:10.682Z,1.60
2019-05-15T12:18:02.339Z,1.50
2019-05-15T12:19:09.125Z,1.50
2019-05-15T12:20:06.183Z,1.30
2019-05-15T12:21:01.319Z,1.40
2019-05-15T12:22:01.285Z,1.60
2019-05-15T12:23:01.295Z,1.50
2019-05-15T12:24:01.265Z,2.00
2019-05-15T12:25:01.652Z,1.40
2019-05-15T12:26:01.274Z,1.70
2019-05-15T12:27:13.914Z,1.60
2019-05-15T12:28:02.222Z,1.50
2019-05-15T12:29:01.214Z,1.40
2019-05-15T12:30:01.205Z,1.60
2019-05-15T12:31:01.234Z,1.50
2019-05-15T12:33:02.181Z,1.50
2019-05-15T12:34:01.161Z,1.40
2019-05-15T12:35:01.152Z,1.40
2019-05-15T12:36:01.139Z,1.80
2019-05-15T12:37:01.156Z,1.40
2019-05-15T12:38:01.128Z,1.50
2019-05-15T12:39:09.497Z,1.40
2019-05-15T13:00:01.883Z,1.30
2019-05-15T13:01:12.802Z,1.60
2019-05-15T13:02:01.868Z,1.50
2019-05-15T13:03:00.876Z,1.40
2019-05-15T13:04:00.854Z,1.60
2019-05-15T13:05:00.837Z,1.40
2019-05-15T13:06:00.824Z,1.40
2019-05-15T13:07:12.838Z,1.60
2019-05-15T13:08:01.817Z,1.50
2019-05-15T13:09:00.802Z,1.30
2019-05-15T13:10:00.776Z,1.40
2019-05-15T13:11:00.764Z,1.10
2019-05-15T13:12:00.753Z,1.40
2019-05-15T13:13:05.095Z,1.30
2019-05-15T13:14:00.741Z,1.40
2019-05-15T13:15:00.726Z,1.40
2019-05-15T13:16:00.711Z,1.90
2019-05-15T13:17:00.706Z,1.50
2019-05-15T13:18:00.803Z,1.50
2019-05-15T13:19:00.704Z,1.40
2019-05-15T13:20:00.725Z,1.40
2019-05-15T13:21:00.690Z,1.70
2019-05-15T13:22:01.185Z,1.40
2019-05-15T13:23:00.639Z,1.20
2019-05-15T13:24:00.663Z,1.40
2019-05-15T13:25:00.639Z,1.60
2019-05-15T13:26:00.604Z,1.30
2019-05-15T13:27:00.595Z,1.60
2019-05-15T13:28:00.630Z,1.20
2019-05-15T13:29:00.605Z,1.40
2019-05-15T13:30:00.566Z,1.50
2019-05-15T13:31:00.552Z,1.40
2019-05-15T13:32:00.550Z,1.50
2019-05-15T13:33:00.552Z,1.50
2019-05-15T13:34:00.567Z,1.30
2019-05-15T13:35:00.515Z,1.40
2019-05-15T13:36:00.506Z,1.40
2019-05-15T13:37:00.498Z,1.40
2019-05-15T13:38:00.479Z,1.50
2019-05-15T13:39:00.470Z,1.50